sensor_id;sensor_type;location;lat;lon;timestamp;pressure;altitude;pressure_sealevel;temperature
82780;BMP280;72511;45.120;20.720;2023-10-13T00:07:21;100671.66;;;15.66
82780;BMP280;72511;45.120;20.720;2023-10-13T00:17:24;100641.00;;;15.62
82780;BMP280;72511;45.120;20.720;2023-10-13T00:27:26;100637.00;;;15.45
82780;BMP280;72511;45.120;20.720;2023-10-13T00:37:30;100645.47;;;15.47
82780;BMP280;72511;45.120;20.720;2023-10-13T00:47:42;100667.09;;;15.42
82780;BMP280;72511;45.120;20.720;2023-10-13T00:57:59;100666.63;;;15.34
82780;BMP280;72511;45.120;20.720;2023-10-13T01:08:04;100658.94;;;15.20
82780;BMP280;72511;45.120;20.720;2023-10-13T01:18:09;100665.41;;;15.14
82780;BMP280;72511;45.120;20.720;2023-10-13T01:28:14;100664.41;;;14.99
82780;BMP280;72511;45.120;20.720;2023-10-13T01:38:18;100684.66;;;14.98
82780;BMP280;72511;45.120;20.720;2023-10-13T01:48:20;100679.81;;;14.80
82780;BMP280;72511;45.120;20.720;2023-10-13T01:58:23;100680.00;;;14.39
82780;BMP280;72511;45.120;20.720;2023-10-13T02:08:27;100663.75;;;14.14
82780;BMP280;72511;45.120;20.720;2023-10-13T02:18:29;100685.72;;;14.20
82780;BMP280;72511;45.120;20.720;2023-10-13T02:28:42;100684.97;;;13.94
82780;BMP280;72511;45.120;20.720;2023-10-13T02:38:52;100685.06;;;14.03
82780;BMP280;72511;45.120;20.720;2023-10-13T02:48:53;100691.25;;;14.04
82780;BMP280;72511;45.120;20.720;2023-10-13T02:58:55;100672.78;;;13.99
82780;BMP280;72511;45.120;20.720;2023-10-13T03:09:10;100667.53;;;13.92
82780;BMP280;72511;45.120;20.720;2023-10-13T03:19:21;100652.59;;;13.71
82780;BMP280;72511;45.120;20.720;2023-10-13T03:29:22;100671.66;;;13.71
82780;BMP280;72511;45.120;20.720;2023-10-13T03:39:25;100664.03;;;13.54
82780;BMP280;72511;45.120;20.720;2023-10-13T03:49:30;100673.59;;;13.58
82780;BMP280;72511;45.120;20.720;2023-10-13T03:59:32;100690.50;;;13.50
82780;BMP280;72511;45.120;20.720;2023-10-13T04:09:37;100676.50;;;13.51
82780;BMP280;72511;45.120;20.720;2023-10-13T04:19:57;100665.47;;;13.42
82780;BMP280;72511;45.120;20.720;2023-10-13T04:30:08;100675.09;;;13.47
82780;BMP280;72511;45.120;20.720;2023-10-13T04:40:10;100655.88;;;13.54
82780;BMP280;72511;45.120;20.720;2023-10-13T04:50:11;100685.56;;;13.73
82780;BMP280;72511;45.120;20.720;2023-10-13T05:00:23;100696.03;;;13.75
82780;BMP280;72511;45.120;20.720;2023-10-13T05:10:47;100735.66;;;13.88
82780;BMP280;72511;45.120;20.720;2023-10-13T05:21:07;100762.25;;;14.22
82780;BMP280;72511;45.120;20.720;2023-10-13T05:31:27;100780.13;;;14.48
82780;BMP280;72511;45.120;20.720;2023-10-13T05:41:46;100793.97;;;14.66
82780;BMP280;72511;45.120;20.720;2023-10-13T05:52:06;100812.03;;;15.31
82780;BMP280;72511;45.120;20.720;2023-10-13T06:02:21;100797.72;;;15.83
82780;BMP280;72511;45.120;20.720;2023-10-13T06:12:40;100828.53;;;17.47
82780;BMP280;72511;45.120;20.720;2023-10-13T06:23:00;100836.28;;;18.17
82780;BMP280;72511;45.120;20.720;2023-10-13T06:33:20;100850.84;;;19.25
82780;BMP280;72511;45.120;20.720;2023-10-13T06:43:23;100838.69;;;19.84
82780;BMP280;72511;45.120;20.720;2023-10-13T06:53:24;100846.75;;;20.37
82780;BMP280;72511;45.120;20.720;2023-10-13T07:03:26;100867.28;;;21.41
82780;BMP280;72511;45.120;20.720;2023-10-13T07:13:33;100863.97;;;22.77
82780;BMP280;72511;45.120;20.720;2023-10-13T07:23:39;100872.28;;;22.35
82780;BMP280;72511;45.120;20.720;2023-10-13T07:33:40;100881.81;;;24.46
82780;BMP280;72511;45.120;20.720;2023-10-13T07:43:42;100897.09;;;25.15
82780;BMP280;72511;45.120;20.720;2023-10-13T07:53:46;100892.91;;;24.98
82780;BMP280;72511;45.120;20.720;2023-10-13T08:03:51;100894.00;;;25.24
82780;BMP280;72511;45.120;20.720;2023-10-13T08:14:06;100882.38;;;25.26
82780;BMP280;72511;45.120;20.720;2023-10-13T08:24:23;100882.22;;;25.13
82780;BMP280;72511;45.120;20.720;2023-10-13T08:34:40;100882.31;;;25.37
82780;BMP280;72511;45.120;20.720;2023-10-13T08:44:45;100886.88;;;25.34
82780;BMP280;72511;45.120;20.720;2023-10-13T08:54:47;100886.56;;;25.43
82780;BMP280;72511;45.120;20.720;2023-10-13T09:05:04;100890.91;;;25.33
82780;BMP280;72511;45.120;20.720;2023-10-13T09:15:29;100885.66;;;25.59
82780;BMP280;72511;45.120;20.720;2023-10-13T09:25:49;100885.31;;;25.38
82780;BMP280;72511;45.120;20.720;2023-10-13T09:36:10;100890.56;;;25.42
82780;BMP280;72511;45.120;20.720;2023-10-13T09:46:19;100883.44;;;25.23
82780;BMP280;72511;45.120;20.720;2023-10-13T09:56:28;100873.50;;;25.38
82780;BMP280;72511;45.120;20.720;2023-10-13T10:06:30;100862.00;;;25.82
82780;BMP280;72511;45.120;20.720;2023-10-13T10:17:04;100855.69;;;26.85
82780;BMP280;72511;45.120;20.720;2023-10-13T10:27:11;100855.59;;;27.53
82780;BMP280;72511;45.120;20.720;2023-10-13T10:37:15;100826.38;;;27.46
82780;BMP280;72511;45.120;20.720;2023-10-13T10:47:17;100826.44;;;27.15
82780;BMP280;72511;45.120;20.720;2023-10-13T10:57:37;100824.41;;;26.84
82780;BMP280;72511;45.120;20.720;2023-10-13T11:07:45;100815.75;;;27.19
82780;BMP280;72511;45.120;20.720;2023-10-13T11:17:52;100796.00;;;28.13
82780;BMP280;72511;45.120;20.720;2023-10-13T11:27:56;100791.41;;;28.03
82780;BMP280;72511;45.120;20.720;2023-10-13T11:38:01;100773.88;;;27.82
82780;BMP280;72511;45.120;20.720;2023-10-13T11:48:14;100765.00;;;28.30
82780;BMP280;72511;45.120;20.720;2023-10-13T11:58:15;100752.31;;;28.75
82780;BMP280;72511;45.120;20.720;2023-10-13T12:08:20;100742.34;;;28.87
82780;BMP280;72511;45.120;20.720;2023-10-13T12:18:24;100742.72;;;28.42
82780;BMP280;72511;45.120;20.720;2023-10-13T12:28:28;100741.41;;;28.64
82780;BMP280;72511;45.120;20.720;2023-10-13T12:38:33;100731.03;;;28.44
82780;BMP280;72511;45.120;20.720;2023-10-13T12:48:49;100739.56;;;28.87
82780;BMP280;72511;45.120;20.720;2023-10-13T12:58:59;100724.16;;;29.14
82780;BMP280;72511;45.120;20.720;2023-10-13T13:09:00;100716.56;;;28.66
82780;BMP280;72511;45.120;20.720;2023-10-13T13:19:02;100722.94;;;28.74
82780;BMP280;72511;45.120;20.720;2023-10-13T13:29:11;100706.69;;;28.65
82780;BMP280;72511;45.120;20.720;2023-10-13T13:39:13;100677.81;;;28.75
82780;BMP280;72511;45.120;20.720;2023-10-13T13:49:19;100704.59;;;28.38
82780;BMP280;72511;45.120;20.720;2023-10-13T13:59:28;100695.03;;;27.92
82780;BMP280;72511;45.120;20.720;2023-10-13T14:09:34;100690.66;;;28.17
82780;BMP280;72511;45.120;20.720;2023-10-13T14:19:41;100681.94;;;28.00
82780;BMP280;72511;45.120;20.720;2023-10-13T14:29:44;100682.16;;;27.30
82780;BMP280;72511;45.120;20.720;2023-10-13T14:39:46;100678.09;;;27.05
82780;BMP280;72511;45.120;20.720;2023-10-13T14:49:47;100671.66;;;26.84
82780;BMP280;72511;45.120;20.720;2023-10-13T14:59:49;100658.22;;;26.44
82780;BMP280;72511;45.120;20.720;2023-10-13T15:09:50;100660.59;;;26.21
82780;BMP280;72511;45.120;20.720;2023-10-13T15:19:51;100648.06;;;25.78
82780;BMP280;72511;45.120;20.720;2023-10-13T15:29:53;100651.69;;;25.31
82780;BMP280;72511;45.120;20.720;2023-10-13T15:39:55;100652.38;;;24.83
82780;BMP280;72511;45.120;20.720;2023-10-13T15:49:56;100644.03;;;24.24
82780;BMP280;72511;45.120;20.720;2023-10-13T15:59:57;100658.59;;;23.84
82780;BMP280;72511;45.120;20.720;2023-10-13T16:09:58;100653.19;;;23.46
82780;BMP280;72511;45.120;20.720;2023-10-13T16:20:00;100665.78;;;23.03
82780;BMP280;72511;45.120;20.720;2023-10-13T16:30:01;100662.50;;;22.66
82780;BMP280;72511;45.120;20.720;2023-10-13T16:40:02;100662.47;;;22.39
82780;BMP280;72511;45.120;20.720;2023-10-13T16:50:07;100669.66;;;22.09
82780;BMP280;72511;45.120;20.720;2023-10-13T17:00:09;100659.00;;;21.85
82780;BMP280;72511;45.120;20.720;2023-10-13T17:10:14;100656.03;;;21.47
82780;BMP280;72511;45.120;20.720;2023-10-13T17:20:16;100666.47;;;21.32
82780;BMP280;72511;45.120;20.720;2023-10-13T17:30:20;100659.63;;;20.91
82780;BMP280;72511;45.120;20.720;2023-10-13T17:40:21;100665.84;;;20.66
82780;BMP280;72511;45.120;20.720;2023-10-13T17:50:27;100664.75;;;20.53
82780;BMP280;72511;45.120;20.720;2023-10-13T18:00:29;100659.09;;;20.42
82780;BMP280;72511;45.120;20.720;2023-10-13T18:10:30;100655.56;;;20.16
82780;BMP280;72511;45.120;20.720;2023-10-13T18:20:32;100640.50;;;19.91
82780;BMP280;72511;45.120;20.720;2023-10-13T18:30:33;100634.00;;;19.69
82780;BMP280;72511;45.120;20.720;2023-10-13T18:40:35;100647.19;;;19.50
82780;BMP280;72511;45.120;20.720;2023-10-13T18:50:40;100655.44;;;19.50
82780;BMP280;72511;45.120;20.720;2023-10-13T19:00:43;100641.09;;;19.26
82780;BMP280;72511;45.120;20.720;2023-10-13T19:10:45;100662.75;;;19.24
82780;BMP280;72511;45.120;20.720;2023-10-13T19:20:47;100653.59;;;19.13
82780;BMP280;72511;45.120;20.720;2023-10-13T19:30:50;100645.09;;;18.96
82780;BMP280;72511;45.120;20.720;2023-10-13T19:40:56;100637.84;;;18.84
82780;BMP280;72511;45.120;20.720;2023-10-13T19:50:57;100629.44;;;18.59
82780;BMP280;72511;45.120;20.720;2023-10-13T20:01:06;100634.91;;;18.59
82780;BMP280;72511;45.120;20.720;2023-10-13T20:11:08;100625.53;;;18.37
82780;BMP280;72511;45.120;20.720;2023-10-13T20:21:16;100635.25;;;18.38
82780;BMP280;72511;45.120;20.720;2023-10-13T20:31:17;100638.16;;;18.34
82780;BMP280;72511;45.120;20.720;2023-10-13T20:41:18;100625.22;;;18.34
82780;BMP280;72511;45.120;20.720;2023-10-13T20:51:20;100629.22;;;18.24
82780;BMP280;72511;45.120;20.720;2023-10-13T21:01:25;100622.97;;;18.10
82780;BMP280;72511;45.120;20.720;2023-10-13T21:11:27;100620.44;;;17.97
82780;BMP280;72511;45.120;20.720;2023-10-13T21:21:28;100612.34;;;17.79
82780;BMP280;72511;45.120;20.720;2023-10-13T21:31:32;100597.31;;;17.75
82780;BMP280;72511;45.120;20.720;2023-10-13T21:41:33;100580.31;;;17.71
82780;BMP280;72511;45.120;20.720;2023-10-13T21:51:38;100586.19;;;17.78
82780;BMP280;72511;45.120;20.720;2023-10-13T22:01:39;100579.84;;;17.49
82780;BMP280;72511;45.120;20.720;2023-10-13T22:11:44;100558.53;;;17.11
82780;BMP280;72511;45.120;20.720;2023-10-13T22:21:46;100550.41;;;16.93
82780;BMP280;72511;45.120;20.720;2023-10-13T22:31:48;100554.53;;;16.71
82780;BMP280;72511;45.120;20.720;2023-10-13T22:41:51;100543.78;;;16.58
82780;BMP280;72511;45.120;20.720;2023-10-13T22:51:52;100548.78;;;16.69
82780;BMP280;72511;45.120;20.720;2023-10-13T23:01:54;100548.59;;;16.90
82780;BMP280;72511;45.120;20.720;2023-10-13T23:11:59;100541.44;;;16.93
82780;BMP280;72511;45.120;20.720;2023-10-13T23:22:12;100524.22;;;17.01
82780;BMP280;72511;45.120;20.720;2023-10-13T23:32:13;100522.44;;;16.98
82780;BMP280;72511;45.120;20.720;2023-10-13T23:42:15;100510.56;;;17.01
82780;BMP280;72511;45.120;20.720;2023-10-13T23:52:24;100490.59;;;17.19
